DucheSS Of Scandinavia — OUZI2 — position and weather

sailwx.info

Track history (hours):
 
Tides and Currents Weather Stations Pressure Air Temp Water Temp Dewpoint Dewpoint Depression Visibility Wind Speed Wind Dir Waves Ship Positions

DucheSS Of Scandinavia

Operator: DFDS A/S

Last reported at 2020-Jan-13 05:00 UTC. Time now 2020-Jan-18 14:00 UTC.
Position N 57°29' E 010°43'.

Length 134 m; draft 5.6 m.

Type: Passenger vessel. MMSI: 219002929.

Date/timePositionNaut miles runAvg speedWind from/ knotsBaromVisibWave heightAir tempDewpointWater temp
2020-Jan-13 05:00N 57°29' E 010°43'816.9
2020-Jan-13 04:30N 57°37' E 010°45'816.7
2020-Jan-13 04:00N 57°46' E 010°45'917.4
2020-Jan-13 03:30N 57°54' E 010°39'2617.1
2020-Jan-13 02:00N 58°19' E 010°32'916.8
2020-Jan-13 01:29N 58°28' E 010°29'1616.6
2020-Jan-13 00:30N 58°44' E 010°23'23 5.8
2020-Jan-12 20:30N 59°06' E 010°14'15 7.7
2020-Jan-12 18:31N 59°01' E 010°42'1514.9
2020-Jan-12 17:30N 58°56' E 011°09'4 3.8
2020-Jan-12 16:31N 58°58' E 011°03'815.0
2020-Jan-12 16:00N 59°01' E 010°50'714.8
2020-Jan-12 15:30N 58°60' E 010°36'3 1.0
2020-Jan-12 12:31N 58°59' E 010°30'1413.5
2020-Jan-12 11:30N 59°00' E 010°56'9 8.5
2020-Jan-12 10:30N 58°56' E 011°10'14 9.5
2020-Jan-12 09:00N 59°02' E 010°45'815.6
2020-Jan-12 08:31N 58°59' E 010°31'12 8.3
2020-Jan-12 07:00N 59°08' E 010°14'1 0.4
2020-Jan-12 02:58N 59°06' E 010°14'0 0.0
2020-Jan-12 00:56N 59°06' E 010°14'0 0.0
2020-Jan-12 00:00N 59°06' E 010°14'0 0.0
2020-Jan-11 22:58N 59°06' E 010°14'0 0.0
2020-Jan-11 22:28N 59°06' E 010°14'0 0.0
2020-Jan-11 21:29N 59°06' E 010°14'0 0.0
2020-Jan-11 20:59N 59°06' E 010°14'0 0.0
2020-Jan-11 16:59N 59°06' E 010°14'0 0.0
2020-Jan-11 15:59N 59°06' E 010°14'30 6.1
2020-Jan-11 11:00N 58°56' E 011°09'31 6.8
2020-Jan-11 06:30N 59°07' E 010°14'1 0.3
2020-Jan-11 03:30N 59°06' E 010°14'0 0.0
2020-Jan-11 02:57N 59°06' E 010°14'0 0.0
2020-Jan-11 02:31N 59°06' E 010°14'0 0.0
2020-Jan-11 01:28N 59°06' E 010°14'0 0.0
2020-Jan-10 23:59N 59°06' E 010°14'0 0.0
2020-Jan-10 23:30N 59°06' E 010°14'30 5.1
2020-Jan-10 17:30N 58°56' E 011°10'0 0.6
2020-Jan-10 17:01N 58°56' E 011°10'2013.0
2020-Jan-10 15:30N 59°01' E 010°33'2 0.7
2020-Jan-10 12:31N 59°01' E 010°29'2210.8
2020-Jan-10 10:30N 58°56' E 011°10'2110.4
2020-Jan-10 08:31N 59°00' E 010°31'714.4
2020-Jan-10 08:00N 59°01' E 010°17'612.1
2020-Jan-10 07:30N 59°07' E 010°14'0 0.6
2020-Jan-10 07:00N 59°08' E 010°14'1 1.8
2020-Jan-10 06:30N 59°07' E 010°14'1 0.1
2020-Jan-10 01:29N 59°06' E 010°14'0 0.0
2020-Jan-10 01:00N 59°06' E 010°14'0 0.0
2020-Jan-09 22:28N 59°06' E 010°14'10 3.0
2020-Jan-09 19:01N 59°00' E 010°31'2013.6
2020-Jan-09 17:30N 58°56' E 011°09'3010.0
2020-Jan-09 14:30N 59°06' E 010°14'24 4.8
2020-Jan-09 09:30N 58°59' E 010°59'715.0
2020-Jan-09 09:00N 59°02' E 010°45'815.5
2020-Jan-09 08:30N 58°59' E 010°31'11 2.2
2020-Jan-09 03:29N 59°06' E 010°14'0 0.0
2020-Jan-09 02:30N 59°06' E 010°14'0 0.0
2020-Jan-08 21:00N 59°06' E 010°14'1 2.9
2020-Jan-08 20:30N 59°08' E 010°14'8 7.9
2020-Jan-08 19:30N 59°00' E 010°20'713.3
2020-Jan-08 19:00N 58°59' E 010°32'1312.6
2020-Jan-08 18:00N 59°00' E 010°57'814.8
2020-Jan-08 17:30N 58°56' E 011°08'17 8.6
2020-Jan-08 15:30N 58°59' E 010°36'714.9
2020-Jan-08 15:01N 58°60' E 010°22'9 8.7
2020-Jan-08 14:00N 59°08' E 010°14'8 7.6
2020-Jan-08 13:01N 59°01' E 010°19'1912.8
2020-Jan-08 11:30N 59°00' E 010°56'815.2
2020-Jan-08 11:00N 58°56' E 011°09'6 4.3
2020-Jan-08 09:30N 58°60' E 010°59'714.5
2020-Jan-08 09:00N 59°01' E 010°45'714.9
2020-Jan-08 08:30N 58°59' E 010°31'815.3
2020-Jan-08 08:00N 59°01' E 010°17'712.9
2020-Jan-08 07:30N 59°07' E 010°14'1 1.0
2020-Jan-08 06:30N 59°06' E 010°14'0 0.2
2020-Jan-08 05:29N 59°06' E 010°14'0 0.0
2020-Jan-08 04:59N 59°06' E 010°14'0 0.0
2020-Jan-08 03:30N 59°06' E 010°14'0 0.0
2020-Jan-08 01:58N 59°06' E 010°14'0 0.0
2020-Jan-08 00:59N 59°06' E 010°14'0 0.0
2020-Jan-07 23:30N 59°06' E 010°14'0 0.0
2020-Jan-07 21:00N 59°06' E 010°14'15 6.1
2020-Jan-07 18:31N 59°01' E 010°42'10 2.8
2020-Jan-07 15:01N 59°01' E 010°23'8 8.1
2020-Jan-07 14:00N 59°08' E 010°14'11 7.2
2020-Jan-07 12:31N 59°01' E 010°30'1414.0
2020-Jan-07 11:30N 59°00' E 010°57'8 8.1
2020-Jan-07 10:30N 58°56' E 011°10'7 6.6
2020-Jan-07 09:30N 58°59' E 010°59'2214.3
2020-Jan-07 08:00N 59°01' E 010°18'612.4
2020-Jan-07 07:30N 59°07' E 010°14'0 0.5
2020-Jan-07 06:30N 59°07' E 010°14'1 0.5
2020-Jan-07 05:28N 59°06' E 010°14'0 0.0
2020-Jan-07 03:59N 59°06' E 010°14'0 0.0
2020-Jan-07 02:59N 59°06' E 010°14'0 0.0
2020-Jan-07 02:30N 59°06' E 010°14'0 0.0
2020-Jan-07 02:00N 59°06' E 010°14'0 0.0
2020-Jan-07 00:58N 59°06' E 010°14'0 0.0
2020-Jan-07 00:28N 59°06' E 010°14'0 0.0
2020-Jan-06 23:58N 59°06' E 010°14'0 0.0
2020-Jan-06 22:59N 59°06' E 010°14'0 0.0
2020-Jan-06 21:00N 59°06' E 010°14'3 2.2
2020-Jan-06 19:30N 59°03' E 010°15'714.6
2020-Jan-06 19:00N 59°01' E 010°28'18 7.0
2020-Jan-06 16:30N 58°58' E 011°02'714.4
2020-Jan-06 16:00N 59°01' E 010°50'1414.4
2020-Jan-06 15:01N 59°01' E 010°22'3 1.5
2020-Jan-06 13:00N 59°02' E 010°16'714.0
2020-Jan-06 12:30N 59°01' E 010°29'15 5.1
2020-Jan-06 09:30N 58°60' E 010°59'815.1
2020-Jan-06 09:01N 59°02' E 010°45'1711.3
2020-Jan-06 07:30N 59°07' E 010°14'1 0.4
2020-Jan-06 03:58N 59°06' E 010°14'0 0.0
2020-Jan-06 03:28N 59°06' E 010°14'0 0.0
2020-Jan-06 01:29N 59°06' E 010°14'0 0.0
2020-Jan-06 00:00N 59°06' E 010°14'0 0.0
2020-Jan-05 23:28N 59°06' E 010°14'0 0.0
2020-Jan-05 22:58N 59°06' E 010°14'0 0.0
2020-Jan-05 22:28N 59°06' E 010°14'0 0.0
2020-Jan-05 21:59N 59°06' E 010°14'16 4.5
2020-Jan-05 18:30N 59°01' E 010°43'11 3.1
2020-Jan-05 15:01N 59°01' E 010°22'3 1.3
2020-Jan-05 13:00N 59°02' E 010°17'1413.7
2020-Jan-05 12:01N 59°02' E 010°44'15 9.9
2020-Jan-05 10:30N 58°56' E 011°10'6 6.2
2020-Jan-05 09:30N 58°59' E 010°60'816.2
2020-Jan-05 09:00N 59°02' E 010°45'816.2
2020-Jan-05 08:30N 59°01' E 010°29'1110.7
2020-Jan-05 07:31N 59°08' E 010°14'0 0.0
2020-Jan-05 07:00N 59°08' E 010°14'1 1.4
2020-Jan-05 05:58N 59°06' E 010°14'0 0.0
2020-Jan-05 05:28N 59°06' E 010°14'0 0.0
2020-Jan-04 22:30N 59°06' E 010°14'0 0.0
2020-Jan-04 20:58N 59°06' E 010°14'0 0.0
2020-Jan-04 20:28N 59°06' E 010°14'2 2.4
2020-Jan-04 19:30N 59°04' E 010°15'3011.8
2020-Jan-04 17:00N 58°56' E 011°10'1211.8
2020-Jan-04 16:00N 59°01' E 010°50'714.6
2020-Jan-04 15:30N 59°01' E 010°36'714.3
2020-Jan-04 15:00N 59°01' E 010°22'8 8.0
2020-Jan-04 14:00N 59°08' E 010°14'31 7.8
2020-Jan-04 10:00N 58°56' E 011°10'2113.8
2020-Jan-04 08:30N 59°00' E 010°31'714.5
2020-Jan-04 08:00N 59°01' E 010°17'6 6.4
2020-Jan-04 07:00N 59°08' E 010°14'1 2.2
2020-Jan-04 06:30N 59°06' E 010°14'0 0.2
2020-Jan-04 05:00N 59°06' E 010°14'0 0.0
2020-Jan-04 04:30N 59°06' E 010°14'0 0.0
2020-Jan-04 02:58N 59°06' E 010°14'0 0.0
2020-Jan-03 21:00N 59°06' E 010°14'11 5.5
2020-Jan-03 19:01N 58°60' E 010°31'12 2.2
2020-Jan-03 13:30N 59°08' E 010°14'1111.5
2020-Jan-03 12:30N 58°59' E 010°29'815.2
2020-Jan-03 12:01N 59°01' E 010°44'15 9.8
2020-Jan-03 10:30N 58°56' E 011°10'14 9.4
2020-Jan-03 09:01N 59°01' E 010°45'1711.4
2020-Jan-03 07:30N 59°07' E 010°14'0 0.7
2020-Jan-03 07:00N 59°08' E 010°14'1 1.0
2020-Jan-03 05:30N 59°06' E 010°14'  
Track history (hours):
 
Tides and Currents Weather Stations Pressure Air Temp Water Temp Dewpoint Dewpoint Depression Visibility Wind Speed Wind Dir Waves Ship Positions

DucheSS Of Scandinavia

Operator: DFDS A/S

Last reported at 2020-Jan-13 05:00 UTC. Time now 2020-Jan-18 14:00 UTC.
Position N 57°29' E 010°43'.

Length 134 m; draft 5.6 m.

Type: Passenger vessel. MMSI: 219002929.

Date/timePositionNaut miles runAvg speedWind from/ knotsBaromVisibWave heightAir tempDewpointWater temp
2020-Jan-13 05:00N 57°29' E 010°43'816.9
2020-Jan-13 04:30N 57°37' E 010°45'816.7
2020-Jan-13 04:00N 57°46' E 010°45'917.4
2020-Jan-13 03:30N 57°54' E 010°39'2617.1
2020-Jan-13 02:00N 58°19' E 010°32'916.8
2020-Jan-13 01:29N 58°28' E 010°29'1616.6
2020-Jan-13 00:30N 58°44' E 010°23'23 5.8
2020-Jan-12 20:30N 59°06' E 010°14'15 7.7
2020-Jan-12 18:31N 59°01' E 010°42'1514.9
2020-Jan-12 17:30N 58°56' E 011°09'4 3.8
2020-Jan-12 16:31N 58°58' E 011°03'815.0
2020-Jan-12 16:00N 59°01' E 010°50'714.8
2020-Jan-12 15:30N 58°60' E 010°36'3 1.0
2020-Jan-12 12:31N 58°59' E 010°30'1413.5
2020-Jan-12 11:30N 59°00' E 010°56'9 8.5
2020-Jan-12 10:30N 58°56' E 011°10'14 9.5
2020-Jan-12 09:00N 59°02' E 010°45'815.6
2020-Jan-12 08:31N 58°59' E 010°31'12 8.3
2020-Jan-12 07:00N 59°08' E 010°14'1 0.4
2020-Jan-12 02:58N 59°06' E 010°14'0 0.0
2020-Jan-12 00:56N 59°06' E 010°14'0 0.0
2020-Jan-12 00:00N 59°06' E 010°14'0 0.0
2020-Jan-11 22:58N 59°06' E 010°14'0 0.0
2020-Jan-11 22:28N 59°06' E 010°14'0 0.0
2020-Jan-11 21:29N 59°06' E 010°14'0 0.0
2020-Jan-11 20:59N 59°06' E 010°14'0 0.0
2020-Jan-11 16:59N 59°06' E 010°14'0 0.0
2020-Jan-11 15:59N 59°06' E 010°14'30 6.1
2020-Jan-11 11:00N 58°56' E 011°09'31 6.8
2020-Jan-11 06:30N 59°07' E 010°14'1 0.3
2020-Jan-11 03:30N 59°06' E 010°14'0 0.0
2020-Jan-11 02:57N 59°06' E 010°14'0 0.0
2020-Jan-11 02:31N 59°06' E 010°14'0 0.0
2020-Jan-11 01:28N 59°06' E 010°14'0 0.0
2020-Jan-10 23:59N 59°06' E 010°14'0 0.0
2020-Jan-10 23:30N 59°06' E 010°14'30 5.1
2020-Jan-10 17:30N 58°56' E 011°10'0 0.6
2020-Jan-10 17:01N 58°56' E 011°10'2013.0
2020-Jan-10 15:30N 59°01' E 010°33'2 0.7
2020-Jan-10 12:31N 59°01' E 010°29'2210.8
2020-Jan-10 10:30N 58°56' E 011°10'2110.4
2020-Jan-10 08:31N 59°00' E 010°31'714.4
2020-Jan-10 08:00N 59°01' E 010°17'612.1
2020-Jan-10 07:30N 59°07' E 010°14'0 0.6
2020-Jan-10 07:00N 59°08' E 010°14'1 1.8
2020-Jan-10 06:30N 59°07' E 010°14'1 0.1
2020-Jan-10 01:29N 59°06' E 010°14'0 0.0
2020-Jan-10 01:00N 59°06' E 010°14'0 0.0
2020-Jan-09 22:28N 59°06' E 010°14'10 3.0
2020-Jan-09 19:01N 59°00' E 010°31'2013.6
2020-Jan-09 17:30N 58°56' E 011°09'3010.0
2020-Jan-09 14:30N 59°06' E 010°14'24 4.8
2020-Jan-09 09:30N 58°59' E 010°59'715.0
2020-Jan-09 09:00N 59°02' E 010°45'815.5
2020-Jan-09 08:30N 58°59' E 010°31'11 2.2
2020-Jan-09 03:29N 59°06' E 010°14'0 0.0
2020-Jan-09 02:30N 59°06' E 010°14'0 0.0
2020-Jan-08 21:00N 59°06' E 010°14'1 2.9
2020-Jan-08 20:30N 59°08' E 010°14'8 7.9
2020-Jan-08 19:30N 59°00' E 010°20'713.3
2020-Jan-08 19:00N 58°59' E 010°32'1312.6
2020-Jan-08 18:00N 59°00' E 010°57'814.8
2020-Jan-08 17:30N 58°56' E 011°08'17 8.6
2020-Jan-08 15:30N 58°59' E 010°36'714.9
2020-Jan-08 15:01N 58°60' E 010°22'9 8.7
2020-Jan-08 14:00N 59°08' E 010°14'8 7.6
2020-Jan-08 13:01N 59°01' E 010°19'1912.8
2020-Jan-08 11:30N 59°00' E 010°56'815.2
2020-Jan-08 11:00N 58°56' E 011°09'6 4.3
2020-Jan-08 09:30N 58°60' E 010°59'714.5
2020-Jan-08 09:00N 59°01' E 010°45'714.9
2020-Jan-08 08:30N 58°59' E 010°31'815.3
2020-Jan-08 08:00N 59°01' E 010°17'712.9
2020-Jan-08 07:30N 59°07' E 010°14'1 1.0
2020-Jan-08 06:30N 59°06' E 010°14'0 0.2
2020-Jan-08 05:29N 59°06' E 010°14'0 0.0
2020-Jan-08 04:59N 59°06' E 010°14'0 0.0
2020-Jan-08 03:30N 59°06' E 010°14'0 0.0
2020-Jan-08 01:58N 59°06' E 010°14'0 0.0
2020-Jan-08 00:59N 59°06' E 010°14'0 0.0
2020-Jan-07 23:30N 59°06' E 010°14'0 0.0
2020-Jan-07 21:00N 59°06' E 010°14'15 6.1
2020-Jan-07 18:31N 59°01' E 010°42'10 2.8
2020-Jan-07 15:01N 59°01' E 010°23'8 8.1
2020-Jan-07 14:00N 59°08' E 010°14'11 7.2
2020-Jan-07 12:31N 59°01' E 010°30'1414.0
2020-Jan-07 11:30N 59°00' E 010°57'8 8.1
2020-Jan-07 10:30N 58°56' E 011°10'7 6.6
2020-Jan-07 09:30N 58°59' E 010°59'2214.3
2020-Jan-07 08:00N 59°01' E 010°18'612.4
2020-Jan-07 07:30N 59°07' E 010°14'0 0.5
2020-Jan-07 06:30N 59°07' E 010°14'1 0.5
2020-Jan-07 05:28N 59°06' E 010°14'0 0.0
2020-Jan-07 03:59N 59°06' E 010°14'0 0.0
2020-Jan-07 02:59N 59°06' E 010°14'0 0.0
2020-Jan-07 02:30N 59°06' E 010°14'0 0.0
2020-Jan-07 02:00N 59°06' E 010°14'0 0.0
2020-Jan-07 00:58N 59°06' E 010°14'0 0.0
2020-Jan-07 00:28N 59°06' E 010°14'0 0.0
2020-Jan-06 23:58N 59°06' E 010°14'0 0.0
2020-Jan-06 22:59N 59°06' E 010°14'0 0.0
2020-Jan-06 21:00N 59°06' E 010°14'3 2.2
2020-Jan-06 19:30N 59°03' E 010°15'714.6
2020-Jan-06 19:00N 59°01' E 010°28'18 7.0
2020-Jan-06 16:30N 58°58' E 011°02'714.4
2020-Jan-06 16:00N 59°01' E 010°50'1414.4
2020-Jan-06 15:01N 59°01' E 010°22'3 1.5
2020-Jan-06 13:00N 59°02' E 010°16'714.0
2020-Jan-06 12:30N 59°01' E 010°29'15 5.1
2020-Jan-06 09:30N 58°60' E 010°59'815.1
2020-Jan-06 09:01N 59°02' E 010°45'1711.3
2020-Jan-06 07:30N 59°07' E 010°14'1 0.4
2020-Jan-06 03:58N 59°06' E 010°14'0 0.0
2020-Jan-06 03:28N 59°06' E 010°14'0 0.0
2020-Jan-06 01:29N 59°06' E 010°14'0 0.0
2020-Jan-06 00:00N 59°06' E 010°14'0 0.0
2020-Jan-05 23:28N 59°06' E 010°14'0 0.0
2020-Jan-05 22:58N 59°06' E 010°14'0 0.0
2020-Jan-05 22:28N 59°06' E 010°14'0 0.0
2020-Jan-05 21:59N 59°06' E 010°14'16 4.5
2020-Jan-05 18:30N 59°01' E 010°43'11 3.1
2020-Jan-05 15:01N 59°01' E 010°22'3 1.3
2020-Jan-05 13:00N 59°02' E 010°17'1413.7
2020-Jan-05 12:01N 59°02' E 010°44'15 9.9
2020-Jan-05 10:30N 58°56' E 011°10'6 6.2
2020-Jan-05 09:30N 58°59' E 010°60'816.2
2020-Jan-05 09:00N 59°02' E 010°45'816.2
2020-Jan-05 08:30N 59°01' E 010°29'1110.7
2020-Jan-05 07:31N 59°08' E 010°14'0 0.0
2020-Jan-05 07:00N 59°08' E 010°14'1 1.4
2020-Jan-05 05:58N 59°06' E 010°14'0 0.0
2020-Jan-05 05:28N 59°06' E 010°14'0 0.0
2020-Jan-04 22:30N 59°06' E 010°14'0 0.0
2020-Jan-04 20:58N 59°06' E 010°14'0 0.0
2020-Jan-04 20:28N 59°06' E 010°14'2 2.4
2020-Jan-04 19:30N 59°04' E 010°15'3011.8
2020-Jan-04 17:00N 58°56' E 011°10'1211.8
2020-Jan-04 16:00N 59°01' E 010°50'714.6
2020-Jan-04 15:30N 59°01' E 010°36'714.3
2020-Jan-04 15:00N 59°01' E 010°22'8 8.0
2020-Jan-04 14:00N 59°08' E 010°14'31 7.8
2020-Jan-04 10:00N 58°56' E 011°10'2113.8
2020-Jan-04 08:30N 59°00' E 010°31'714.5
2020-Jan-04 08:00N 59°01' E 010°17'6 6.4
2020-Jan-04 07:00N 59°08' E 010°14'1 2.2
2020-Jan-04 06:30N 59°06' E 010°14'0 0.2
2020-Jan-04 05:00N 59°06' E 010°14'0 0.0
2020-Jan-04 04:30N 59°06' E 010°14'0 0.0
2020-Jan-04 02:58N 59°06' E 010°14'0 0.0
2020-Jan-03 21:00N 59°06' E 010°14'11 5.5
2020-Jan-03 19:01N 58°60' E 010°31'12 2.2
2020-Jan-03 13:30N 59°08' E 010°14'1111.5
2020-Jan-03 12:30N 58°59' E 010°29'815.2
2020-Jan-03 12:01N 59°01' E 010°44'15 9.8
2020-Jan-03 10:30N 58°56' E 011°10'14 9.4
2020-Jan-03 09:01N 59°01' E 010°45'1711.4
2020-Jan-03 07:30N 59°07' E 010°14'0 0.7
2020-Jan-03 07:00N 59°08' E 010°14'1 1.0
2020-Jan-03 05:30N 59°06' E 010°14'  

Dump ship's entire track history